1198-й км

Карта отелей и гостиниц, располагающихся рядом с аэропортом 1198-й км :

1198-й км Свердловская область 60° 55' 49.6488" N, 60° 56' 15.3888" E
1198-й км Свердловская область 60° 55' 49.6488" N, 60° 56' 15.3888" E
Код аэродрома ИКАО
HDV1
Код аэродрома RU
ХДЖ1
Координаты
N60.93046° E060.93761°
Превышение над уровнем моря
150
Основная полоса
35/17
Курс магнитный
349,4/169,4
Длина основной ВПП
20
Ширина основной ВПП
20
Покрытие основной ВПП
Твёрдое
Освещение ВПП
Нет
Тип: 
Вертодром
Класс аэродрома: 
Принадлежность: 
ГА
Статус: 
Действующий
Сайт: 
E-mail аэродрома: 
Страна: 
Россия
Регион: 
Свердловская область
Город: 
Дополнительная информация: 
Владелец ПП: нет данных.


Найти трансфер

С помощью этой формы Вы можете найти трансфер из аэропорта 1198-й км в город, аэропорт или вокзал:

Погода в аэропортах:

Авиационная погода в Бухте Провидения

Погода METAR: 
UHMD 270400Z 18005MPS 6000 BCFG SCT006 02/00 Q1016 RMK QBB200 MT OBSC QFE761/1015
Время наблюдения
2022-05-27T04:00:00Z
Температура C
2.0
Точка росы
0.0
Направление ветра
180
Скорость ветра (узлы)
10
Метео видимость
3.73
Облачность
SCT
Нижняя граница облачности (футы)
600
Явления погоды
BCFG
Условия полета
MVFR
Аэропорт подробнее: 
SCT – разбросанная отдельная облачность;
FG – туман (небо не видно, температура воздуха выше нуля или ноль);

Авиационная погода в Пулково

Регион: 
Погода METAR: 
ULLI 291030Z 30004MPS 9999 -SHRA SCT021CB BKN040 13/10 Q1006 R28L/290050 R28R/190055 NOSIG
Время наблюдения
2022-05-29T10:30:00Z
Температура C
13.0
Точка росы
10.0
Направление ветра
300
Скорость ветра (узлы)
8
Метео видимость
6.21
Облачность
SCT
BKN
Нижняя граница облачности (футы)
2100
4000
Явления погоды
-SHRA
Условия полета
VFR
Аэропорт подробнее: 
SCT – разбросанная отдельная облачность; BKN – значительная (рассеянная, разорванная) облачность;
-SHRA - слабый ливневой дождь;

Авиационная погода в Савонлинна

Регион: 
Погода METAR: 
EFSA 291020Z AUTO 19005KT 160V230 9999 VCSH SCT040 //////CB 18/08 Q1003
Время наблюдения
2022-05-29T10:20:00Z
Температура C
18.0
Точка росы
8.0
Направление ветра
190
Скорость ветра (узлы)
5
Метео видимость
6.21
Облачность
SCT
Нижняя граница облачности (футы)
4000
Явления погоды
VCSH
Условия полета
VFR
SCT – разбросанная отдельная облачность;

Авиационная погода в аэропорту Имени Алексея Леонова

Регион: 
Погода METAR: 
UNEE 291030Z 29002MPS 7000 -RA BKN049 14/12 Q1011 R23/290155 NOSIG RMK QFE735
Время наблюдения
2022-05-29T10:30:00Z
Температура C
14.0
Точка росы
12.0
Направление ветра
290
Скорость ветра (узлы)
4
Метео видимость
4.35
Облачность
BKN
Нижняя граница облачности (футы)
4900
Явления погоды
-RA
Условия полета
MVFR
Аэропорт подробнее: 
BKN – значительная (рассеянная, разорванная) облачность;
-RA - слабый дождь;